Time;durP1;ratioP1;P1;durP2;ratioP2;P2;SDS_P1;SDS_P2;PMS_P1;PMS_P2;Temp;Humidity;BMP_temperature;BMP_pressure;BME280_temperature;BME280_humidity;BME280_pressure;Samples;Min_cycle;Max_cycle;Signal;HPM_P1;HPM_P2
2022/03/01 00:01:22;;;;;;;6.60;4.40;;;;;;;;;;5020546;28;20108;-59
2022/03/01 00:03:47;;;;;;;7.37;4.43;;;;;;;;;;4989082;28;20044;-55
2022/03/01 00:06:12;;;;;;;6.47;4.07;;;;;;;;;;5003455;28;20288;-57
2022/03/01 00:08:37;;;;;;;6.55;4.22;;;;;;;;;;5003391;28;20280;-55
2022/03/01 00:11:03;;;;;;;7.43;4.67;;;;;;;;;;5018185;28;20025;-56
2022/03/01 00:13:28;;;;;;;7.37;4.30;;;;;;;;;;5004383;28;20096;-57
2022/03/01 00:15:53;;;;;;;7.17;4.20;;;;;;;;;;5003369;28;20792;-56
2022/03/01 00:18:19;;;;;;;6.27;4.27;;;;;;;;;;5003562;28;20829;-56
2022/03/01 00:20:44;;;;;;;6.22;4.20;;;;;;;;;;5003624;28;20272;-56
2022/03/01 00:23:09;;;;;;;6.60;4.00;;;;;;;;;;4987265;28;20023;-57
2022/03/01 00:25:34;;;;;;;7.07;4.43;;;;;;;;;;5001457;28;20276;-56
2022/03/01 00:27:59;;;;;;;6.23;3.97;;;;;;;;;;5009721;28;20355;-56
2022/03/01 00:30:25;;;;;;;6.70;4.20;;;;;;;;;;5022773;28;20267;-56
2022/03/01 00:32:50;;;;;;;5.77;4.03;;;;;;;;;;5008418;28;20284;-56
2022/03/01 00:35:15;;;;;;;5.90;3.90;;;;;;;;;;5002834;28;20265;-56
2022/03/01 00:37:41;;;;;;;7.00;4.60;;;;;;;;;;5002703;28;20024;-56
2022/03/01 00:40:06;;;;;;;5.80;3.83;;;;;;;;;;5003297;28;20563;-56
2022/03/01 00:42:31;;;;;;;7.35;4.35;;;;;;;;;;5002019;28;20047;-56
2022/03/01 00:44:56;;;;;;;6.33;4.23;;;;;;;;;;4997215;28;20026;-56
2022/03/01 00:47:22;;;;;;;5.70;3.60;;;;;;;;;;4991495;28;20334;-56
2022/03/01 00:49:47;;;;;;;6.77;4.07;;;;;;;;;;5007413;28;20337;-56
2022/03/01 00:52:12;;;;;;;6.50;4.07;;;;;;;;;;5012625;28;20799;-56
2022/03/01 00:54:37;;;;;;;6.13;4.10;;;;;;;;;;5002128;28;20886;-56
2022/03/01 00:57:03;;;;;;;7.50;4.27;;;;;;;;;;5002588;28;20280;-57
2022/03/01 00:59:28;;;;;;;6.30;3.95;;;;;;;;;;5002708;28;20269;-55
2022/03/01 01:01:53;;;;;;;6.63;3.90;;;;;;;;;;5002108;28;20530;-57
2022/03/01 01:04:18;;;;;;;5.80;3.70;;;;;;;;;;5002725;28;20076;-56
2022/03/01 01:06:44;;;;;;;5.67;3.53;;;;;;;;;;4990244;28;20289;-56
2022/03/01 01:09:12;;;;;;;5.93;3.60;;;;;;;;;;4998811;28;20367;-56
2022/03/01 01:11:38;;;;;;;6.07;3.70;;;;;;;;;;5018516;28;20358;-56
2022/03/01 01:14:03;;;;;;;5.68;3.50;;;;;;;;;;5002283;28;20484;-58
2022/03/01 01:16:28;;;;;;;5.32;3.53;;;;;;;;;;5002004;28;20121;-57
2022/03/01 01:18:55;;;;;;;5.07;3.47;;;;;;;;;;5002734;28;20033;-56
2022/03/01 01:21:21;;;;;;;5.68;3.63;;;;;;;;;;5001732;28;20276;-56
2022/03/01 01:23:46;;;;;;;5.97;4.03;;;;;;;;;;5002018;28;20412;-56
2022/03/01 01:26:11;;;;;;;6.40;3.72;;;;;;;;;;4992477;28;20494;-56
2022/03/01 01:28:37;;;;;;;6.63;4.03;;;;;;;;;;5008359;28;20526;-56
2022/03/01 01:31:02;;;;;;;4.97;3.33;;;;;;;;;;5016523;28;20307;-56
2022/03/01 01:33:27;;;;;;;4.80;3.17;;;;;;;;;;5003073;28;20480;-56
2022/03/01 01:35:52;;;;;;;5.80;3.67;;;;;;;;;;5001596;28;20025;-56
2022/03/01 01:38:18;;;;;;;5.20;3.60;;;;;;;;;;5001704;28;20026;-57
2022/03/01 01:40:43;;;;;;;6.37;3.60;;;;;;;;;;5001411;28;20361;-56
2022/03/01 01:43:08;;;;;;;5.43;3.20;;;;;;;;;;5001137;28;20308;-56
2022/03/01 01:45:33;;;;;;;4.67;3.33;;;;;;;;;;4998402;28;20794;-56
2022/03/01 01:47:58;;;;;;;5.13;3.57;;;;;;;;;;4987951;28;20668;-56
2022/03/01 01:50:24;;;;;;;5.78;3.53;;;;;;;;;;5001139;28;20273;-57
2022/03/01 01:52:49;;;;;;;4.70;3.30;;;;;;;;;;5000643;28;20033;-56
2022/03/01 01:55:15;;;;;;;5.07;3.15;;;;;;;;;;5000514;28;20029;-56
2022/03/01 01:57:41;;;;;;;5.35;3.50;;;;;;;;;;5001127;28;20484;-57
2022/03/01 02:00:06;;;;;;;4.67;3.30;;;;;;;;;;5001354;28;20033;-56
2022/03/01 02:02:31;;;;;;;5.55;3.40;;;;;;;;;;4999516;28;20331;-57
2022/03/01 02:04:57;;;;;;;4.60;2.93;;;;;;;;;;5001295;28;20420;-56
2022/03/01 02:07:22;;;;;;;4.83;3.33;;;;;;;;;;4984679;28;20297;-56
2022/03/01 02:09:47;;;;;;;5.03;3.17;;;;;;;;;;5005515;28;20264;-56
2022/03/01 02:12:12;;;;;;;4.45;2.78;;;;;;;;;;5012861;28;20308;-56
2022/03/01 02:14:38;;;;;;;4.07;2.80;;;;;;;;;;5000672;28;20060;-55
2022/03/01 02:17:04;;;;;;;4.45;2.65;;;;;;;;;;5000690;28;20265;-58
2022/03/01 02:19:29;;;;;;;5.07;3.30;;;;;;;;;;5000468;28;20534;-57
2022/03/01 02:21:55;;;;;;;4.55;3.10;;;;;;;;;;5000662;28;20528;-58
2022/03/01 02:24:21;;;;;;;4.40;2.85;;;;;;;;;;5000815;28;20033;-57
2022/03/01 02:26:46;;;;;;;4.25;2.90;;;;;;;;;;4988092;28;20030;-56
2022/03/01 02:29:11;;;;;;;4.50;3.13;;;;;;;;;;4996591;28;20771;-57
2022/03/01 02:31:36;;;;;;;4.30;2.90;;;;;;;;;;4994941;28;20838;-56
2022/03/01 02:34:02;;;;;;;4.53;2.60;;;;;;;;;;4991373;28;20022;-56
2022/03/01 02:36:27;;;;;;;4.00;2.55;;;;;;;;;;4999199;28;20269;-57
2022/03/01 02:38:52;;;;;;;3.78;2.63;;;;;;;;;;5000590;28;20022;-56
2022/03/01 02:41:18;;;;;;;3.97;2.63;;;;;;;;;;5000573;28;20889;-56
2022/03/01 02:43:43;;;;;;;4.43;2.67;;;;;;;;;;5000240;28;20093;-57
2022/03/01 02:46:08;;;;;;;4.33;2.20;;;;;;;;;;5000231;28;20284;-56
2022/03/01 02:48:33;;;;;;;3.43;2.40;;;;;;;;;;4999457;28;20261;-56
2022/03/01 02:50:58;;;;;;;3.83;2.50;;;;;;;;;;5014694;28;20891;-56
2022/03/01 02:53:24;;;;;;;3.83;2.60;;;;;;;;;;4986197;28;20865;-57
2022/03/01 02:55:49;;;;;;;4.40;2.78;;;;;;;;;;5000206;28;20271;-56
2022/03/01 02:58:16;;;;;;;4.33;2.77;;;;;;;;;;5000471;28;20022;-57
2022/03/01 03:00:42;;;;;;;4.05;2.70;;;;;;;;;;5000408;28;20283;-57
2022/03/01 03:03:07;;;;;;;3.72;2.35;;;;;;;;;;5000373;28;20572;-56
2022/03/01 03:05:32;;;;;;;4.05;2.33;;;;;;;;;;5000312;28;20543;-57
2022/03/01 03:07:57;;;;;;;3.13;2.30;;;;;;;;;;5003486;28;20423;-56
2022/03/01 03:10:23;;;;;;;3.33;2.30;;;;;;;;;;5013457;28;20412;-56
2022/03/01 03:12:48;;;;;;;3.72;2.50;;;;;;;;;;4998999;28;20374;-56
2022/03/01 03:15:13;;;;;;;3.63;2.40;;;;;;;;;;4999902;28;20406;-57
2022/03/01 03:17:38;;;;;;;3.73;2.10;;;;;;;;;;5004352;28;20593;-58
2022/03/01 03:20:04;;;;;;;3.55;2.25;;;;;;;;;;5004032;28;20265;-56
2022/03/01 03:22:29;;;;;;;3.33;2.13;;;;;;;;;;5004208;28;20550;-57
2022/03/01 03:24:55;;;;;;;3.93;2.60;;;;;;;;;;5003995;28;20034;-57
2022/03/01 03:27:20;;;;;;;4.22;2.55;;;;;;;;;;5004024;28;20419;-57
2022/03/01 03:29:45;;;;;;;3.80;2.40;;;;;;;;;;5007728;28;20464;-56
2022/03/01 03:32:11;;;;;;;4.07;2.58;;;;;;;;;;5008836;28;20764;-57
2022/03/01 03:34:36;;;;;;;3.87;2.13;;;;;;;;;;4994944;28;20030;-56
2022/03/01 03:37:01;;;;;;;3.40;2.27;;;;;;;;;;5004058;28;20176;-57
2022/03/01 03:39:26;;;;;;;3.78;2.10;;;;;;;;;;5003825;28;20280;-57
2022/03/01 03:41:52;;;;;;;3.57;2.17;;;;;;;;;;5003759;28;20021;-56
2022/03/01 03:44:17;;;;;;;3.23;2.20;;;;;;;;;;5003534;28;20349;-56
2022/03/01 03:46:42;;;;;;;3.53;1.95;;;;;;;;;;5003582;28;20273;-57
2022/03/01 03:49:07;;;;;;;3.58;2.20;;;;;;;;;;5003753;28;20040;-58
2022/03/01 03:51:33;;;;;;;3.17;2.17;;;;;;;;;;5017444;28;20048;-56
2022/03/01 03:53:58;;;;;;;3.03;2.10;;;;;;;;;;4989425;28;20279;-57
2022/03/01 03:56:23;;;;;;;3.00;1.90;;;;;;;;;;5003118;28;20746;-56
2022/03/01 03:58:50;;;;;;;3.38;2.10;;;;;;;;;;5003534;28;20125;-58
2022/03/01 04:01:15;;;;;;;3.30;2.13;;;;;;;;;;5001975;28;20417;-57
2022/03/01 04:03:40;;;;;;;3.20;1.90;;;;;;;;;;5003284;28;20472;-57
2022/03/01 04:06:06;;;;;;;2.73;1.77;;;;;;;;;;5001728;28;20075;-56
2022/03/01 04:08:32;;;;;;;2.70;1.73;;;;;;;;;;5003352;28;20675;-56
2022/03/01 04:10:57;;;;;;;3.50;2.10;;;;;;;;;;5016591;28;20029;-56
2022/03/01 04:13:25;;;;;;;3.45;2.15;;;;;;;;;;4989703;28;20770;-56
2022/03/01 04:15:51;;;;;;;3.22;2.00;;;;;;;;;;4999406;28;20081;-56
2022/03/01 04:18:16;;;;;;;3.60;2.40;;;;;;;;;;4993599;28;20084;-56
2022/03/01 04:20:41;;;;;;;3.83;1.95;;;;;;;;;;4994712;28;20514;-56
2022/03/01 04:23:06;;;;;;;3.20;2.05;;;;;;;;;;5002673;28;20026;-56
2022/03/01 04:25:32;;;;;;;3.03;1.97;;;;;;;;;;5002607;28;20550;-57
2022/03/01 04:27:57;;;;;;;3.33;2.15;;;;;;;;;;5003361;28;20766;-56
2022/03/01 04:30:22;;;;;;;3.17;1.93;;;;;;;;;;5011204;28;20126;-56
2022/03/01 04:32:47;;;;;;;3.13;1.88;;;;;;;;;;5009474;28;20281;-56
2022/03/01 04:35:13;;;;;;;2.72;1.73;;;;;;;;;;5002833;28;20836;-56
2022/03/01 04:37:38;;;;;;;3.10;1.90;;;;;;;;;;4998966;28;20050;-56
2022/03/01 04:40:04;;;;;;;3.10;1.85;;;;;;;;;;4989849;28;20033;-56
2022/03/01 04:42:30;;;;;;;2.80;1.67;;;;;;;;;;5003067;28;20488;-56
2022/03/01 04:44:55;;;;;;;2.75;1.67;;;;;;;;;;5002417;28;20552;-56
2022/03/01 04:47:20;;;;;;;2.47;1.70;;;;;;;;;;5002465;28;20096;-56
2022/03/01 04:49:45;;;;;;;2.87;1.77;;;;;;;;;;5006278;28;20030;-56
2022/03/01 04:52:11;;;;;;;2.65;1.70;;;;;;;;;;5015393;28;20815;-57
2022/03/01 04:54:36;;;;;;;2.67;1.53;;;;;;;;;;5002520;28;20026;-56
2022/03/01 04:57:01;;;;;;;3.00;1.50;;;;;;;;;;5002203;28;20268;-57
2022/03/01 04:59:26;;;;;;;2.88;1.70;;;;;;;;;;4985993;28;20082;-57
2022/03/01 05:01:52;;;;;;;3.23;1.90;;;;;;;;;;5003210;28;20549;-56
2022/03/01 05:04:17;;;;;;;3.13;1.80;;;;;;;;;;5003707;28;21110;-57
2022/03/01 05:06:42;;;;;;;3.72;1.85;;;;;;;;;;5002839;28;20304;-57
2022/03/01 05:09:07;;;;;;;2.73;1.80;;;;;;;;;;5002903;28;20100;-57
2022/03/01 05:11:33;;;;;;;3.03;2.03;;;;;;;;;;5018565;28;20314;-56
2022/03/01 05:13:58;;;;;;;3.15;1.83;;;;;;;;;;5002442;28;21128;-58
2022/03/01 05:16:24;;;;;;;2.45;1.67;;;;;;;;;;5001900;28;20522;-57
2022/03/01 05:18:49;;;;;;;3.10;1.83;;;;;;;;;;5002397;28;20041;-57
2022/03/01 05:21:14;;;;;;;2.97;1.83;;;;;;;;;;5017980;28;20056;-58
2022/03/01 05:23:39;;;;;;;2.13;1.53;;;;;;;;;;5002925;28;20307;-58
2022/03/01 05:26:05;;;;;;;2.07;1.60;;;;;;;;;;4987359;28;20690;-58
2022/03/01 05:28:30;;;;;;;2.80;1.70;;;;;;;;;;4981549;28;20026;-56
2022/03/01 05:30:55;;;;;;;2.70;1.58;;;;;;;;;;4983919;28;20084;-56
2022/03/01 05:33:21;;;;;;;2.23;1.70;;;;;;;;;;4981598;28;20030;-57
2022/03/01 05:35:46;;;;;;;2.25;1.58;;;;;;;;;;4983801;28;20299;-57
2022/03/01 05:38:11;;;;;;;2.90;1.60;;;;;;;;;;5001189;28;20786;-57
2022/03/01 05:40:37;;;;;;;2.55;1.60;;;;;;;;;;4996718;28;20349;-57
2022/03/01 05:43:04;;;;;;;2.83;1.60;;;;;;;;;;4995438;28;20026;-57
2022/03/01 05:45:29;;;;;;;4.05;1.70;;;;;;;;;;5000544;28;20509;-58
2022/03/01 05:47:54;;;;;;;3.25;1.80;;;;;;;;;;5001355;28;20037;-57
2022/03/01 05:50:20;;;;;;;3.75;1.80;;;;;;;;;;5009013;28;20837;-59
2022/03/01 05:52:45;;;;;;;3.10;1.55;;;;;;;;;;5008956;28;20065;-59
2022/03/01 05:55:11;;;;;;;3.63;1.80;;;;;;;;;;5000974;28;20112;-60
2022/03/01 05:57:36;;;;;;;3.30;1.58;;;;;;;;;;4998257;28;20717;-60
2022/03/01 06:00:02;;;;;;;2.28;1.40;;;;;;;;;;4986315;28;20017;-58
2022/03/01 06:02:27;;;;;;;2.13;1.30;;;;;;;;;;4994257;28;20104;-59
2022/03/01 06:04:53;;;;;;;3.10;1.70;;;;;;;;;;4993483;28;20517;-59
2022/03/01 06:07:18;;;;;;;2.90;1.70;;;;;;;;;;4999886;28;20292;-58
2022/03/01 06:09:43;;;;;;;3.25;1.77;;;;;;;;;;4999878;28;20275;-57
2022/03/01 06:12:09;;;;;;;2.73;1.60;;;;;;;;;;4992169;28;20034;-58
2022/03/01 06:14:34;;;;;;;3.03;1.80;;;;;;;;;;4990192;28;20091;-59
2022/03/01 06:16:59;;;;;;;2.47;1.40;;;;;;;;;;4999957;28;20021;-58
2022/03/01 06:19:24;;;;;;;2.93;1.70;;;;;;;;;;4997627;28;20034;-60
2022/03/01 06:21:52;;;;;;;2.70;1.50;;;;;;;;;;5000823;28;20083;-58
2022/03/01 06:24:17;;;;;;;1.85;1.30;;;;;;;;;;4991618;28;20269;-60
2022/03/01 06:26:42;;;;;;;2.27;1.43;;;;;;;;;;4989880;28;20037;-58
2022/03/01 06:29:07;;;;;;;2.38;1.30;;;;;;;;;;4994294;28;20261;-57
2022/03/01 06:31:32;;;;;;;3.03;1.60;;;;;;;;;;5001067;28;20065;-58
2022/03/01 06:33:58;;;;;;;3.87;1.53;;;;;;;;;;5000203;28;20876;-55
2022/03/01 06:36:24;;;;;;;2.50;1.33;;;;;;;;;;4999307;28;20413;-58
2022/03/01 06:38:49;;;;;;;2.22;1.52;;;;;;;;;;4999797;28;20849;-60
2022/03/01 06:41:14;;;;;;;2.27;1.30;;;;;;;;;;4989632;28;20112;-57
2022/03/01 06:43:39;;;;;;;2.50;1.30;;;;;;;;;;4996807;28;20081;-59
2022/03/01 06:46:04;;;;;;;2.37;1.30;;;;;;;;;;4999727;28;20030;-58
2022/03/01 06:48:30;;;;;;;3.40;1.37;;;;;;;;;;5000247;28;20272;-57
2022/03/01 06:50:55;;;;;;;2.77;1.50;;;;;;;;;;5013340;28;20659;-59
2022/03/01 06:53:20;;;;;;;2.70;1.42;;;;;;;;;;5004478;28;20283;-58
2022/03/01 06:55:45;;;;;;;2.70;1.63;;;;;;;;;;5000348;28;20065;-57
2022/03/01 06:58:11;;;;;;;2.47;1.40;;;;;;;;;;5000085;28;20284;-58
2022/03/01 07:00:36;;;;;;;2.17;1.40;;;;;;;;;;5000221;28;20535;-57
2022/03/01 07:03:01;;;;;;;3.30;1.80;;;;;;;;;;5000738;28;20452;-57
2022/03/01 07:05:27;;;;;;;3.73;1.93;;;;;;;;;;4983427;28;20026;-57
2022/03/01 07:07:52;;;;;;;2.70;1.47;;;;;;;;;;5000085;28;20050;-58
2022/03/01 07:10:17;;;;;;;2.77;1.57;;;;;;;;;;5007693;28;20789;-57
2022/03/01 07:12:43;;;;;;;3.75;1.70;;;;;;;;;;5009261;28;21654;-57
2022/03/01 07:15:08;;;;;;;2.70;1.80;;;;;;;;;;4997991;28;20096;-58
2022/03/01 07:17:34;;;;;;;2.50;1.67;;;;;;;;;;4998480;28;20164;-57
2022/03/01 07:19:59;;;;;;;2.73;1.60;;;;;;;;;;5000094;28;20102;-59
2022/03/01 07:22:25;;;;;;;4.10;1.80;;;;;;;;;;4999832;28;20280;-59
2022/03/01 07:24:50;;;;;;;2.83;1.67;;;;;;;;;;4999075;28;20260;-58
2022/03/01 07:27:15;;;;;;;3.87;1.90;;;;;;;;;;4999394;28;20022;-58
2022/03/01 07:29:40;;;;;;;3.07;1.90;;;;;;;;;;5001976;28;20284;-57
2022/03/01 07:32:06;;;;;;;4.63;1.90;;;;;;;;;;5013792;28;20038;-57
2022/03/01 07:34:31;;;;;;;3.13;1.80;;;;;;;;;;4998220;28;20041;-57
2022/03/01 07:36:56;;;;;;;3.15;2.00;;;;;;;;;;5000164;28;20116;-58
2022/03/01 07:39:22;;;;;;;2.63;1.60;;;;;;;;;;5000056;28;20443;-57
2022/03/01 07:41:47;;;;;;;3.53;2.30;;;;;;;;;;4999518;28;20499;-57
2022/03/01 07:44:13;;;;;;;3.37;1.90;;;;;;;;;;4993248;28;20484;-57
2022/03/01 07:46:38;;;;;;;3.17;1.80;;;;;;;;;;4989560;28;20272;-57
2022/03/01 07:49:03;;;;;;;3.37;2.43;;;;;;;;;;4992624;28;20507;-57
2022/03/01 07:51:28;;;;;;;3.20;2.00;;;;;;;;;;4999272;28;20718;-59
2022/03/01 07:53:54;;;;;;;3.80;2.20;;;;;;;;;;5002010;28;20033;-58
2022/03/01 07:56:22;;;;;;;3.20;2.13;;;;;;;;;;5003479;28;20034;-58
2022/03/01 07:58:47;;;;;;;3.40;1.92;;;;;;;;;;5002654;28;20076;-58
2022/03/01 08:01:12;;;;;;;3.47;2.10;;;;;;;;;;5003107;28;20084;-57
2022/03/01 08:03:38;;;;;;;3.73;2.33;;;;;;;;;;5003377;28;20022;-57
2022/03/01 08:06:03;;;;;;;3.42;2.20;;;;;;;;;;4993444;28;20052;-57
2022/03/01 08:08:28;;;;;;;4.40;2.37;;;;;;;;;;5003206;28;20038;-57
2022/03/01 08:10:53;;;;;;;3.50;2.20;;;;;;;;;;4988099;28;20363;-57
2022/03/01 08:13:19;;;;;;;3.30;1.90;;;;;;;;;;4986421;28;20285;-58
2022/03/01 08:15:44;;;;;;;3.23;2.03;;;;;;;;;;4988833;28;20025;-58
2022/03/01 08:18:09;;;;;;;5.30;2.77;;;;;;;;;;4984895;28;20711;-58
2022/03/01 08:20:35;;;;;;;5.60;2.37;;;;;;;;;;5002310;28;20314;-60
2022/03/01 08:23:02;;;;;;;4.78;2.53;;;;;;;;;;5001074;28;20281;-57
2022/03/01 08:25:27;;;;;;;4.38;2.55;;;;;;;;;;5002496;28;20096;-57
2022/03/01 08:27:52;;;;;;;5.35;2.60;;;;;;;;;;5002765;28;20026;-58
2022/03/01 08:30:17;;;;;;;5.97;2.73;;;;;;;;;;4994551;28;20407;-57
2022/03/01 08:32:43;;;;;;;5.97;2.50;;;;;;;;;;4993186;28;20041;-57
2022/03/01 08:35:08;;;;;;;5.70;2.60;;;;;;;;;;4995173;28;20037;-57
2022/03/01 08:37:34;;;;;;;4.47;2.70;;;;;;;;;;5002159;28;20125;-57
2022/03/01 08:39:59;;;;;;;4.30;2.33;;;;;;;;;;5002722;28;20032;-57
2022/03/01 08:42:24;;;;;;;5.77;2.90;;;;;;;;;;5002275;28;20662;-58
2022/03/01 08:44:49;;;;;;;4.20;2.80;;;;;;;;;;5002048;28;20267;-58
2022/03/01 08:47:15;;;;;;;6.07;3.20;;;;;;;;;;5001913;28;20334;-57
2022/03/01 08:49:40;;;;;;;5.22;2.90;;;;;;;;;;4996902;28;20026;-57
2022/03/01 08:52:05;;;;;;;5.40;2.83;;;;;;;;;;4987960;28;20034;-57
2022/03/01 08:54:30;;;;;;;3.92;3.10;;;;;;;;;;5001672;28;20312;-57
2022/03/01 08:56:55;;;;;;;6.40;3.17;;;;;;;;;;4992978;28;20087;-57
2022/03/01 08:59:21;;;;;;;6.45;3.78;;;;;;;;;;4998657;28;20129;-57
2022/03/01 09:01:46;;;;;;;5.45;3.13;;;;;;;;;;4990221;28;20030;-57
2022/03/01 09:04:12;;;;;;;7.90;3.70;;;;;;;;;;4987511;28;20018;-57
2022/03/01 09:06:37;;;;;;;6.60;3.88;;;;;;;;;;4992828;28;20129;-57
2022/03/01 09:09:03;;;;;;;6.93;3.60;;;;;;;;;;5001748;28;20029;-57
2022/03/01 09:11:28;;;;;;;6.20;3.40;;;;;;;;;;4985061;28;20042;-57
2022/03/01 09:13:53;;;;;;;7.33;3.83;;;;;;;;;;4989190;28;20475;-58
2022/03/01 09:16:18;;;;;;;6.43;3.67;;;;;;;;;;5001077;28;20352;-59
2022/03/01 09:18:44;;;;;;;7.53;4.17;;;;;;;;;;5000968;28;20045;-58
2022/03/01 09:21:09;;;;;;;7.47;3.80;;;;;;;;;;4995852;28;20276;-57
2022/03/01 09:23:34;;;;;;;7.70;3.88;;;;;;;;;;5001332;28;20487;-57
2022/03/01 09:26:00;;;;;;;7.53;3.97;;;;;;;;;;4993648;28;20022;-57
2022/03/01 09:28:25;;;;;;;7.22;3.85;;;;;;;;;;4982425;28;20768;-57
2022/03/01 09:30:50;;;;;;;7.03;3.97;;;;;;;;;;4980650;28;20273;-57
2022/03/01 09:33:15;;;;;;;7.83;4.00;;;;;;;;;;4984097;28;20312;-57
2022/03/01 09:35:41;;;;;;;7.50;3.55;;;;;;;;;;4989959;28;20641;-57
2022/03/01 09:38:06;;;;;;;7.10;3.60;;;;;;;;;;4985603;28;20097;-57
2022/03/01 09:40:31;;;;;;;6.63;3.97;;;;;;;;;;4982520;28;20077;-56
2022/03/01 09:42:56;;;;;;;5.90;3.80;;;;;;;;;;4984807;28;20265;-57
2022/03/01 09:45:22;;;;;;;8.33;4.13;;;;;;;;;;4979962;28;20274;-57
2022/03/01 09:47:47;;;;;;;7.40;4.13;;;;;;;;;;4982091;28;20025;-56
2022/03/01 09:50:12;;;;;;;6.30;3.43;;;;;;;;;;4984566;28;20022;-56
2022/03/01 09:52:37;;;;;;;7.78;3.88;;;;;;;;;;4982542;28;20812;-56
2022/03/01 09:55:03;;;;;;;6.43;3.50;;;;;;;;;;4981066;28;20033;-57
2022/03/01 09:57:29;;;;;;;6.53;3.70;;;;;;;;;;4982760;28;20092;-56
2022/03/01 09:59:54;;;;;;;6.70;3.57;;;;;;;;;;4984215;28;20030;-60
2022/03/01 10:02:19;;;;;;;6.38;3.60;;;;;;;;;;4980991;28;20026;-59
2022/03/01 10:04:50;;;;;;;7.30;4.07;;;;;;;;;;4997554;28;20054;-57
2022/03/01 10:07:20;;;;;;;5.90;3.58;;;;;;;;;;4997988;28;20285;-59
2022/03/01 10:09:45;;;;;;;6.53;3.50;;;;;;;;;;5000460;28;20024;-57
2022/03/01 10:12:10;;;;;;;5.67;3.70;;;;;;;;;;5007244;28;20037;-57
2022/03/01 10:14:37;;;;;;;5.53;3.70;;;;;;;;;;4992311;28;20278;-57
2022/03/01 10:17:10;;;;;;;6.00;3.70;;;;;;;;;;4993632;28;20308;-56
2022/03/01 10:19:36;;;;;;;6.93;3.90;;;;;;;;;;4999996;28;20091;-58
2022/03/01 10:22:02;;;;;;;6.83;3.90;;;;;;;;;;5000568;28;20480;-57
2022/03/01 10:24:27;;;;;;;6.38;3.67;;;;;;;;;;5000343;28;20025;-57
2022/03/01 10:27:01;;;;;;;6.13;3.38;;;;;;;;;;5000344;28;20415;-56
2022/03/01 10:29:27;;;;;;;6.35;3.42;;;;;;;;;;4999543;28;20022;-57
2022/03/01 10:31:52;;;;;;;6.05;3.30;;;;;;;;;;5000838;28;20042;-58
2022/03/01 10:34:18;;;;;;;6.30;3.40;;;;;;;;;;4984381;28;20595;-57
2022/03/01 10:36:47;;;;;;;6.22;3.80;;;;;;;;;;4990921;28;20021;-58
2022/03/01 10:39:19;;;;;;;6.70;3.40;;;;;;;;;;5000362;28;20025;-58
2022/03/01 10:41:45;;;;;;;6.72;3.63;;;;;;;;;;4999485;28;20123;-58
2022/03/01 10:44:15;;;;;;;6.75;3.72;;;;;;;;;;5000227;28;20050;-58
2022/03/01 10:46:41;;;;;;;5.65;3.50;;;;;;;;;;4999071;28;20053;-56
2022/03/01 10:49:08;;;;;;;5.32;3.45;;;;;;;;;;4984347;28;20034;-58
2022/03/01 10:51:33;;;;;;;5.93;3.55;;;;;;;;;;5012561;28;20393;-59
2022/03/01 10:53:58;;;;;;;7.07;3.53;;;;;;;;;;4994168;28;20033;-58
2022/03/01 10:56:32;;;;;;;6.10;3.58;;;;;;;;;;4981916;28;20575;-57
2022/03/01 10:58:57;;;;;;;5.03;3.40;;;;;;;;;;4991595;28;20511;-56
2022/03/01 11:01:24;;;;;;;5.67;3.40;;;;;;;;;;4998447;28;20030;-57
2022/03/01 11:03:49;;;;;;;5.35;3.58;;;;;;;;;;4989391;28;20029;-58
2022/03/01 11:06:16;;;;;;;6.85;3.47;;;;;;;;;;4979669;28;20030;-56
2022/03/01 11:08:41;;;;;;;6.18;3.47;;;;;;;;;;4990046;28;20038;-58
2022/03/01 11:11:08;;;;;;;4.97;3.20;;;;;;;;;;5012441;28;20052;-57
2022/03/01 11:13:34;;;;;;;6.13;3.30;;;;;;;;;;4987116;28;20041;-57
2022/03/01 11:16:05;;;;;;;5.40;3.63;;;;;;;;;;4999094;28;20085;-56
2022/03/01 11:18:50;;;;;;;5.53;2.95;;;;;;;;;;4982289;28;20196;-56
2022/03/01 11:21:15;;;;;;;6.15;3.35;;;;;;;;;;4978898;28;20030;-56
2022/03/01 11:23:41;;;;;;;4.47;3.08;;;;;;;;;;4992846;28;20026;-56
2022/03/01 11:26:07;;;;;;;4.78;3.15;;;;;;;;;;4979600;28;20030;-57
2022/03/01 11:28:40;;;;;;;5.70;3.20;;;;;;;;;;4981969;28;20018;-57
2022/03/01 11:31:05;;;;;;;4.93;3.00;;;;;;;;;;4983717;28;20434;-56
2022/03/01 11:33:36;;;;;;;5.00;3.13;;;;;;;;;;4982517;28;20029;-58
2022/03/01 11:36:02;;;;;;;7.65;3.45;;;;;;;;;;4984117;28;20006;-57
2022/03/01 11:38:28;;;;;;;5.75;2.95;;;;;;;;;;4982488;28;20038;-56
2022/03/01 11:40:55;;;;;;;3.80;2.70;;;;;;;;;;4982022;28;20022;-56
2022/03/01 11:43:26;;;;;;;5.50;3.30;;;;;;;;;;4982355;28;20153;-57
2022/03/01 11:45:52;;;;;;;5.15;2.88;;;;;;;;;;4984153;28;20845;-57
2022/03/01 11:48:18;;;;;;;5.13;3.08;;;;;;;;;;4983081;28;20077;-57
2022/03/01 11:50:44;;;;;;;5.07;3.10;;;;;;;;;;4987225;28;20022;-56
2022/03/01 11:53:09;;;;;;;5.03;3.10;;;;;;;;;;4985036;28;20066;-57
2022/03/01 11:55:43;;;;;;;5.05;3.33;;;;;;;;;;4981959;28;20060;-56
2022/03/01 11:58:09;;;;;;;6.05;3.30;;;;;;;;;;4983241;28;20049;-56
2022/03/01 12:00:34;;;;;;;5.32;3.40;;;;;;;;;;4981601;28;20576;-57
2022/03/01 12:03:00;;;;;;;4.38;3.22;;;;;;;;;;5000258;28;20030;-56
2022/03/01 12:05:25;;;;;;;4.82;3.20;;;;;;;;;;4983745;28;20805;-57
2022/03/01 12:07:54;;;;;;;5.30;2.97;;;;;;;;;;4989685;28;20076;-57
2022/03/01 12:10:20;;;;;;;5.18;3.42;;;;;;;;;;4999978;28;20018;-56
2022/03/01 12:12:45;;;;;;;4.57;2.58;;;;;;;;;;4982881;28;20022;-57
2022/03/01 12:15:12;;;;;;;5.10;3.33;;;;;;;;;;4982848;28;20045;-57
2022/03/01 12:17:42;;;;;;;5.97;3.30;;;;;;;;;;4984449;28;20034;-56
2022/03/01 12:20:08;;;;;;;4.85;2.97;;;;;;;;;;4997257;28;20028;-57
2022/03/01 12:22:33;;;;;;;5.85;3.53;;;;;;;;;;4991422;28;20033;-57
2022/03/01 12:24:58;;;;;;;4.90;3.20;;;;;;;;;;4982676;28;20076;-56
2022/03/01 12:27:27;;;;;;;4.87;3.10;;;;;;;;;;4983751;28;20022;-59
2022/03/01 12:29:52;;;;;;;5.88;3.33;;;;;;;;;;4998229;28;20283;-56
2022/03/01 12:32:18;;;;;;;5.30;3.40;;;;;;;;;;4984175;28;20034;-56
2022/03/01 12:34:43;;;;;;;4.07;2.78;;;;;;;;;;4983912;28;20268;-58
2022/03/01 12:37:09;;;;;;;5.07;3.27;;;;;;;;;;4999966;28;20539;-58
2022/03/01 12:39:34;;;;;;;5.38;3.40;;;;;;;;;;4993979;28;20649;-57
2022/03/01 12:41:59;;;;;;;11.88;3.65;;;;;;;;;;4983158;28;20026;-57
2022/03/01 12:44:28;;;;;;;4.77;3.27;;;;;;;;;;4990361;28;20046;-57
2022/03/01 12:46:54;;;;;;;6.13;3.30;;;;;;;;;;5001723;28;20029;-58
2022/03/01 12:49:19;;;;;;;5.88;3.38;;;;;;;;;;5002912;28;20400;-61
2022/03/01 12:51:45;;;;;;;4.95;3.30;;;;;;;;;;5018631;28;20037;-57
2022/03/01 12:54:14;;;;;;;5.25;3.38;;;;;;;;;;5002229;28;20579;-58
2022/03/01 12:56:40;;;;;;;4.53;3.03;;;;;;;;;;5010717;28;20165;-58
2022/03/01 12:59:06;;;;;;;5.75;3.28;;;;;;;;;;5020293;28;20109;-54
2022/03/01 13:01:31;;;;;;;5.35;3.20;;;;;;;;;;4983911;28;20096;-58
2022/03/01 13:03:56;;;;;;;5.50;3.33;;;;;;;;;;4982600;28;20029;-59
2022/03/01 13:06:22;;;;;;;5.47;2.85;;;;;;;;;;4982774;28;20032;-58
2022/03/01 13:08:51;;;;;;;5.07;3.00;;;;;;;;;;4981838;28;20421;-58
2022/03/01 13:11:16;;;;;;;5.68;3.22;;;;;;;;;;4985496;28;20034;-58
2022/03/01 13:13:48;;;;;;;5.32;2.90;;;;;;;;;;4984176;28;20045;-58
2022/03/01 13:16:17;;;;;;;5.03;3.28;;;;;;;;;;4983082;28;20052;-58
2022/03/01 13:18:42;;;;;;;5.38;3.42;;;;;;;;;;4983736;28;20076;-57
2022/03/01 13:21:08;;;;;;;4.63;3.17;;;;;;;;;;4983517;28;20018;-58
2022/03/01 13:23:33;;;;;;;5.33;3.20;;;;;;;;;;4985832;28;20277;-58
2022/03/01 13:26:00;;;;;;;4.50;3.03;;;;;;;;;;4981492;28;20037;-56
2022/03/01 13:28:44;;;;;;;5.05;3.30;;;;;;;;;;5000656;28;20485;-58
2022/03/01 13:31:18;;;;;;;5.88;3.40;;;;;;;;;;4985290;28;20022;-57
2022/03/01 13:33:43;;;;;;;5.28;2.90;;;;;;;;;;4989914;28;20113;-57
2022/03/01 13:36:10;;;;;;;5.60;3.30;;;;;;;;;;4994270;28;20129;-57
2022/03/01 13:38:35;;;;;;;4.32;3.20;;;;;;;;;;4982820;28;20162;-57
2022/03/01 13:41:00;;;;;;;5.87;3.63;;;;;;;;;;5000234;28;20074;-58
2022/03/01 13:43:26;;;;;;;5.87;3.60;;;;;;;;;;4982745;28;20642;-59
2022/03/01 13:45:56;;;;;;;5.82;3.75;;;;;;;;;;4986272;28;20516;-58
2022/03/01 13:48:21;;;;;;;4.97;3.42;;;;;;;;;;5003476;28;20037;-58
2022/03/01 13:50:46;;;;;;;5.53;3.43;;;;;;;;;;4991432;28;20299;-58
2022/03/01 13:53:24;;;;;;;5.30;3.30;;;;;;;;;;4981229;28;20368;-58
2022/03/01 13:55:51;;;;;;;5.60;3.70;;;;;;;;;;4983436;28;20277;-58
2022/03/01 13:58:19;;;;;;;5.68;3.60;;;;;;;;;;4979609;28;20042;-57
2022/03/01 14:00:45;;;;;;;6.60;3.72;;;;;;;;;;4979223;28;20018;-58
2022/03/01 14:03:14;;;;;;;5.47;3.75;;;;;;;;;;4988212;28;20034;-57
2022/03/01 14:05:44;;;;;;;5.55;3.38;;;;;;;;;;4987842;28;20113;-57
2022/03/01 14:08:10;;;;;;;5.93;3.70;;;;;;;;;;4982051;28;20061;-58
2022/03/01 14:10:37;;;;;;;6.40;3.72;;;;;;;;;;4984479;28;20019;-58
2022/03/01 14:13:14;;;;;;;5.13;3.42;;;;;;;;;;4981956;28;20030;-57
2022/03/01 14:15:39;;;;;;;5.65;3.72;;;;;;;;;;4982512;28;20020;-57
2022/03/01 14:18:04;;;;;;;5.32;3.67;;;;;;;;;;4986884;28;20021;-58
2022/03/01 14:20:30;;;;;;;5.53;3.87;;;;;;;;;;5000987;28;20026;-57
2022/03/01 14:22:55;;;;;;;6.50;3.80;;;;;;;;;;4999309;28;20257;-57
2022/03/01 14:25:20;;;;;;;5.75;3.53;;;;;;;;;;5000851;28;20025;-57
2022/03/01 14:27:45;;;;;;;5.37;3.50;;;;;;;;;;4985954;28;20022;-57
2022/03/01 14:30:11;;;;;;;5.80;3.70;;;;;;;;;;5001699;28;20033;-57
2022/03/01 14:32:36;;;;;;;5.60;3.72;;;;;;;;;;4987904;28;20033;-57
2022/03/01 14:35:02;;;;;;;4.40;3.17;;;;;;;;;;5000662;28;20021;-57